createdAt,value
2018-05-25T00:00:52.816Z,10.80
2018-05-25T00:03:20.685Z,12.90
2018-05-25T00:05:48.551Z,13.40
2018-05-25T00:08:16.418Z,15.03
2018-05-25T00:10:44.286Z,16.23
2018-05-25T00:13:12.159Z,12.07
2018-05-25T00:15:40.020Z,14.00
2018-05-25T00:18:07.888Z,14.93
2018-05-25T00:20:35.754Z,12.80
2018-05-25T00:23:03.622Z,13.63
2018-05-25T00:25:31.418Z,15.77
2018-05-25T00:27:59.970Z,21.13
2018-05-25T00:30:27.837Z,14.73
2018-05-25T00:32:56.526Z,15.23
2018-05-25T00:35:24.330Z,17.00
2018-05-25T00:37:52.974Z,17.10
2018-05-25T00:40:20.840Z,16.93
2018-05-25T00:42:48.709Z,15.80
2018-05-25T00:45:16.576Z,22.77
2018-05-25T00:47:44.443Z,22.03
2018-05-25T00:50:12.720Z,17.87
2018-05-25T00:52:40.483Z,17.70
2018-05-25T00:55:20.231Z,20.20
2018-05-25T00:57:48.097Z,21.30
2018-05-25T01:00:15.965Z,18.83
2018-05-25T01:02:43.835Z,21.80
2018-05-25T01:05:11.702Z,27.27
2018-05-25T01:07:39.568Z,25.70
2018-05-25T01:10:07.645Z,22.20
2018-05-25T01:12:35.548Z,23.20
2018-05-25T01:15:04.296Z,20.30
2018-05-25T01:17:32.162Z,25.90
2018-05-25T01:20:00.131Z,22.57
2018-05-25T01:22:28.204Z,24.30
2018-05-25T01:24:56.072Z,26.70
2018-05-25T01:27:23.937Z,26.70
2018-05-25T01:29:51.806Z,23.90
2018-05-25T01:32:19.572Z,28.40
2018-05-25T01:34:47.438Z,24.70
2018-05-25T01:37:15.306Z,29.97
2018-05-25T01:39:43.170Z,26.03
2018-05-25T01:42:11.244Z,28.90
2018-05-25T01:44:39.213Z,27.03
2018-05-25T01:47:06.911Z,29.00
2018-05-25T01:49:35.562Z,26.67
2018-05-25T01:52:03.429Z,27.03
2018-05-25T01:54:31.297Z,33.30
2018-05-25T01:56:59.164Z,28.90
2018-05-25T01:59:27.460Z,26.00
2018-05-25T02:01:56.025Z,30.60
2018-05-25T02:04:23.993Z,26.77
2018-05-25T02:06:51.864Z,30.37
2018-05-25T02:09:19.730Z,32.20
2018-05-25T02:11:47.604Z,30.93
2018-05-25T02:14:15.462Z,26.80
2018-05-25T02:16:43.333Z,26.03
2018-05-25T02:19:11.197Z,30.33
2018-05-25T02:21:39.272Z,29.10
2018-05-25T02:24:07.140Z,28.17
2018-05-25T02:26:35.004Z,32.43
2018-05-25T02:29:02.871Z,33.73
2018-05-25T02:31:30.739Z,32.20
2018-05-25T02:33:58.540Z,35.97
2018-05-25T02:36:27.191Z,32.40
2018-05-25T02:38:55.064Z,37.27
2018-05-25T02:41:22.925Z,29.90
2018-05-25T02:43:50.793Z,30.27
2018-05-25T02:46:18.593Z,30.10
2018-05-25T02:48:47.244Z,34.83
2018-05-25T02:51:15.113Z,28.47
2018-05-25T02:53:43.389Z,33.43
2018-05-25T02:56:11.260Z,33.10
2018-05-25T02:58:39.123Z,31.07
2018-05-25T03:01:07.502Z,30.27
2018-05-25T03:03:35.372Z,31.97
2018-05-25T03:06:03.239Z,43.50
2018-05-25T03:08:31.105Z,36.10
2018-05-25T03:10:58.971Z,31.63
2018-05-25T03:13:26.838Z,34.30
2018-05-25T03:15:54.707Z,33.23
2018-05-25T03:18:22.572Z,31.10
2018-05-25T03:20:50.338Z,34.40
2018-05-25T03:23:18.205Z,34.17
2018-05-25T03:25:46.074Z,34.27
2018-05-25T03:28:13.937Z,31.67
2018-05-25T03:30:41.806Z,37.30
2018-05-25T03:33:09.676Z,35.70
2018-05-25T03:35:37.541Z,37.63
2018-05-25T03:38:06.228Z,37.73
2018-05-25T03:40:34.094Z,35.27
2018-05-25T03:43:01.962Z,33.60
2018-05-25T03:45:29.829Z,35.63
2018-05-25T03:47:57.697Z,34.40
2018-05-25T03:50:25.564Z,36.97
2018-05-25T03:52:53.636Z,39.10
2018-05-25T03:55:21.508Z,33.87
2018-05-25T03:57:49.371Z,39.60
2018-05-25T04:00:29.117Z,35.73
2018-05-25T04:02:56.985Z,37.00
2018-05-25T04:05:24.850Z,39.40
2018-05-25T04:07:52.723Z,36.07
2018-05-25T04:10:20.791Z,37.37
2018-05-25T04:12:53.455Z,37.40
2018-05-25T04:15:21.746Z,43.73
2018-05-25T04:17:49.613Z,32.23
2018-05-25T04:20:17.380Z,36.67
2018-05-25T04:22:45.246Z,36.10
2018-05-25T04:25:14.524Z,38.23
2018-05-25T04:27:42.518Z,37.97
2018-05-25T04:30:10.383Z,33.67
2018-05-25T04:32:38.250Z,36.30
2018-05-25T04:35:06.118Z,39.63
2018-05-25T04:37:33.986Z,37.93
2018-05-25T04:40:01.853Z,39.73
2018-05-25T04:42:29.720Z,40.13
2018-05-25T04:44:57.588Z,36.37
2018-05-25T04:47:25.455Z,39.63
2018-05-25T04:49:53.322Z,37.20
2018-05-25T04:52:21.237Z,49.50
2018-05-25T04:54:49.875Z,37.53
2018-05-25T04:57:17.742Z,38.40
2018-05-25T04:59:45.609Z,44.63
2018-05-25T05:02:13.682Z,37.60
2018-05-25T05:04:41.551Z,34.07
2018-05-25T05:07:09.417Z,38.43
2018-05-25T05:09:37.284Z,36.13
2018-05-25T05:12:05.152Z,34.20
2018-05-25T05:14:33.019Z,32.93
2018-05-25T05:17:01.091Z,32.73
2018-05-25T05:19:28.959Z,33.00
2018-05-25T05:21:56.825Z,36.10
2018-05-25T05:24:24.692Z,32.50
2018-05-25T05:26:52.560Z,32.70
2018-05-25T05:29:20.428Z,29.07
2018-05-25T05:31:48.192Z,33.70
2018-05-25T05:34:16.164Z,33.43
2018-05-25T05:36:44.031Z,38.97
2018-05-25T05:39:11.900Z,31.73
2018-05-25T05:41:39.764Z,31.37
2018-05-25T05:44:07.630Z,30.07
2018-05-25T05:46:35.497Z,34.63
2018-05-25T05:49:03.368Z,31.63
2018-05-25T05:51:32.275Z,31.00
2018-05-25T05:53:59.992Z,30.10
2018-05-25T05:56:27.694Z,33.87
2018-05-25T05:58:55.454Z,27.53
2018-05-25T06:01:23.172Z,28.40
2018-05-25T06:03:50.937Z,32.03
2018-05-25T06:08:52.715Z,27.70
2018-05-25T06:11:20.418Z,27.40
2018-05-25T06:13:48.128Z,31.33
2018-05-25T06:16:15.883Z,27.13
2018-05-25T06:18:44.360Z,28.97
2018-05-25T06:21:12.876Z,30.77
2018-05-25T06:23:40.578Z,24.60
2018-05-25T06:26:08.325Z,26.87
2018-05-25T06:28:36.080Z,30.37
2018-05-25T06:31:04.257Z,26.33
2018-05-25T06:33:31.968Z,35.17
2018-05-25T06:36:00.443Z,24.67
2018-05-25T06:38:28.188Z,29.03
2018-05-25T06:40:55.935Z,26.37
2018-05-25T06:43:23.716Z,22.10
2018-05-25T06:45:51.462Z,23.30
2018-05-25T06:48:19.336Z,22.20
2018-05-25T06:50:47.076Z,23.60
2018-05-25T06:53:14.780Z,22.50
2018-05-25T06:55:42.529Z,21.57
2018-05-25T06:58:10.283Z,21.27
2018-05-25T07:00:38.132Z,17.00
2018-05-25T07:03:05.844Z,18.30
2018-05-25T07:05:33.547Z,16.20
2018-05-25T07:08:02.093Z,16.77
2018-05-25T07:10:29.803Z,14.90
2018-05-25T07:12:57.513Z,14.17
2018-05-25T07:15:25.375Z,15.80
2018-05-25T07:17:53.087Z,13.83
2018-05-25T07:20:21.591Z,15.77
2018-05-25T07:22:49.326Z,14.30
2018-05-25T07:25:18.312Z,16.03
2018-05-25T07:27:46.800Z,13.30
2018-05-25T07:30:15.281Z,14.00
2018-05-25T07:32:43.914Z,12.30
2018-05-25T07:35:12.401Z,19.20
2018-05-25T07:37:40.100Z,14.43
2018-05-25T07:40:09.005Z,11.90
2018-05-25T07:42:37.484Z,14.17
2018-05-25T07:45:05.956Z,9.90
2018-05-25T07:47:34.457Z,11.77
2018-05-25T07:50:03.063Z,11.03
2018-05-25T07:52:30.764Z,12.20
2018-05-25T07:54:58.488Z,16.03
2018-05-25T07:57:26.736Z,11.83
2018-05-25T07:59:55.221Z,10.63
2018-05-25T08:02:23.695Z,13.53
2018-05-25T08:04:52.206Z,12.30
2018-05-25T08:07:19.915Z,13.47
2018-05-25T08:09:47.643Z,11.40
2018-05-25T08:12:15.484Z,15.13
2018-05-25T08:14:43.961Z,9.37
2018-05-25T08:17:12.447Z,9.40
2018-05-25T08:19:40.972Z,13.10
2018-05-25T08:22:08.673Z,9.90
2018-05-25T08:24:36.360Z,9.40
2018-05-25T08:27:04.105Z,7.97
2018-05-25T08:29:32.584Z,11.13
2018-05-25T08:32:01.090Z,11.23
2018-05-25T08:34:28.852Z,8.53
2018-05-25T08:36:56.594Z,11.33
2018-05-25T08:39:24.309Z,9.10
2018-05-25T08:41:52.009Z,8.10
2018-05-25T08:44:19.740Z,12.73
2018-05-25T08:46:47.581Z,8.60
2018-05-25T08:49:15.354Z,10.90
2018-05-25T08:51:43.067Z,11.63
2018-05-25T08:54:10.800Z,10.30
2018-05-25T08:56:38.510Z,10.17
2018-05-25T08:59:07.017Z,11.23
2018-05-25T09:01:34.725Z,11.20
2018-05-25T09:04:02.466Z,9.60
2018-05-25T09:06:30.185Z,11.50
2018-05-25T09:08:58.784Z,12.07
2018-05-25T09:11:27.254Z,16.63
2018-05-25T09:13:55.727Z,11.50
2018-05-25T09:16:23.452Z,13.33
2018-05-25T09:18:51.180Z,10.70
2018-05-25T09:21:19.041Z,11.37
2018-05-25T09:23:47.512Z,11.83
2018-05-25T09:26:15.986Z,19.33
2018-05-25T09:28:43.727Z,12.50
2018-05-25T09:31:11.444Z,13.80
2018-05-25T09:33:39.180Z,12.30
2018-05-25T09:36:06.870Z,10.63
2018-05-25T09:38:34.598Z,11.40
2018-05-25T09:41:02.303Z,9.50
2018-05-25T09:43:30.075Z,11.43
2018-05-25T09:45:57.795Z,11.50
2018-05-25T09:48:25.546Z,11.40
2018-05-25T09:50:53.256Z,11.00
2018-05-25T09:53:21.120Z,10.80
2018-05-25T09:55:48.834Z,11.60
2018-05-25T09:58:16.552Z,11.03
2018-05-25T10:00:45.204Z,11.10
2018-05-25T10:03:12.956Z,11.60
2018-05-25T10:05:41.500Z,11.33
2018-05-25T10:08:09.235Z,16.63
2018-05-25T10:10:37.784Z,15.00
2018-05-25T10:13:05.542Z,11.43
2018-05-25T10:15:56.184Z,15.53
2018-05-25T10:18:27.488Z,11.20
2018-05-25T10:21:16.560Z,11.80
2018-05-25T10:26:47.003Z,11.70
2018-05-25T10:29:31.509Z,12.17
2018-05-25T10:32:21.182Z,14.80
2018-05-25T10:34:57.374Z,11.10
2018-05-25T10:37:25.208Z,10.60
2018-05-25T10:39:52.944Z,12.27
2018-05-25T10:42:21.474Z,13.33
2018-05-25T10:44:49.243Z,12.67
2018-05-25T10:47:16.928Z,12.10
2018-05-25T10:49:44.707Z,15.23
2018-05-25T10:52:12.546Z,13.80
2018-05-25T10:54:40.259Z,12.47
2018-05-25T10:57:13.867Z,10.50
2018-05-25T10:59:43.453Z,16.17
2018-05-25T11:02:17.720Z,13.60
2018-05-25T11:04:50.247Z,13.37
2018-05-25T11:07:22.953Z,13.60
2018-05-25T11:09:58.147Z,13.10
2018-05-25T11:12:29.829Z,10.70
2018-05-25T11:15:01.105Z,10.57
2018-05-25T11:17:35.070Z,9.70
2018-05-25T11:20:10.431Z,8.13
2018-05-25T11:22:43.353Z,12.70
2018-05-25T11:25:16.426Z,8.30
2018-05-25T11:27:52.651Z,9.43
2018-05-25T11:30:23.566Z,11.70
2018-05-25T11:32:53.913Z,8.80
2018-05-25T11:35:24.607Z,7.93
2018-05-25T11:38:01.893Z,12.80
2018-05-25T11:40:31.051Z,9.40
2018-05-25T11:42:59.121Z,12.53
2018-05-25T11:45:28.679Z,9.73
2018-05-25T11:47:59.044Z,8.10
2018-05-25T11:50:27.720Z,15.03
2018-05-25T13:11:59.464Z,12.83
2018-05-25T13:14:27.941Z,10.43
2018-05-25T13:16:56.545Z,8.67
2018-05-25T13:19:24.230Z,8.90
2018-05-25T13:21:51.922Z,11.83
2018-05-25T13:24:19.661Z,11.50
2018-05-25T13:26:47.384Z,15.63
2018-05-25T13:29:15.923Z,15.40
2018-05-25T13:31:43.639Z,13.07
2018-05-25T13:34:11.346Z,9.47
2018-05-25T13:36:39.079Z,11.17
2018-05-25T13:39:07.927Z,13.60
2018-05-25T13:41:36.431Z,15.13
2018-05-25T13:44:04.314Z,8.17
2018-05-25T13:46:37.124Z,7.90
2018-05-25T13:49:05.482Z,15.93
2018-05-25T13:51:33.193Z,9.90
2018-05-25T13:54:01.686Z,18.20
2018-05-25T13:56:30.221Z,10.00
2018-05-25T13:58:57.970Z,8.07
2018-05-25T14:01:25.731Z,12.10
2018-05-25T14:03:53.476Z,12.70
2018-05-25T14:06:21.900Z,7.27
2018-05-25T14:08:50.888Z,7.53
2018-05-25T14:11:19.770Z,6.70
2018-05-25T14:13:47.719Z,7.00
2018-05-25T14:16:15.567Z,7.30
2018-05-25T14:18:43.820Z,5.53
2018-05-25T14:21:12.316Z,7.50
2018-05-25T14:23:40.036Z,5.70
2018-05-25T14:26:08.235Z,5.90
2018-05-25T14:28:36.721Z,5.13
2018-05-25T14:31:05.238Z,5.20
2018-05-25T14:33:33.037Z,5.57
2018-05-25T14:36:00.740Z,4.83
2018-05-25T14:38:28.905Z,11.93
2018-05-25T14:40:56.613Z,8.10
2018-05-25T14:43:24.361Z,6.07
2018-05-25T14:45:52.167Z,15.37
2018-05-25T14:48:20.702Z,5.23
2018-05-25T14:50:48.499Z,8.60
2018-05-25T14:53:16.277Z,6.90
2018-05-25T14:55:44.066Z,8.10
2018-05-25T14:58:12.611Z,6.27
2018-05-25T15:00:40.303Z,7.97
2018-05-25T15:03:08.809Z,7.30
2018-05-25T15:05:36.872Z,8.20
2018-05-25T15:08:05.306Z,8.43
2018-05-25T15:10:33.158Z,5.93
2018-05-25T15:13:10.954Z,14.40
2018-05-25T15:15:40.295Z,6.70
2018-05-25T15:18:08.802Z,7.03
2018-05-25T15:20:36.549Z,7.63
2018-05-25T15:23:04.325Z,5.37
2018-05-25T15:25:33.001Z,6.77
2018-05-25T15:28:00.765Z,7.70
2018-05-25T15:30:28.493Z,8.23
2018-05-25T15:32:56.255Z,8.47
2018-05-25T15:35:24.961Z,8.30
2018-05-25T15:37:53.439Z,7.60
2018-05-25T15:40:21.919Z,6.93
2018-05-25T15:42:50.440Z,7.83
2018-05-25T15:45:18.165Z,9.03
2018-05-25T15:47:46.670Z,10.13
2018-05-25T15:50:14.629Z,11.63
2018-05-25T15:52:42.475Z,8.57
2018-05-25T15:55:11.037Z,11.67
2018-05-25T15:57:38.995Z,8.10
2018-05-25T16:00:09.151Z,8.20
2018-05-25T16:02:36.975Z,9.87
2018-05-25T16:05:04.749Z,11.90
2018-05-25T16:07:32.560Z,10.57
2018-05-25T16:10:00.295Z,14.80
2018-05-25T16:12:29.267Z,7.60
2018-05-25T16:14:57.011Z,9.07
2018-05-25T16:17:24.870Z,13.67
2018-05-25T16:19:52.671Z,8.37
2018-05-25T16:22:20.376Z,10.47
2018-05-25T16:24:48.130Z,10.77
2018-05-25T16:27:16.075Z,8.63
2018-05-25T16:29:44.637Z,12.30
2018-05-25T16:32:12.426Z,9.63
2018-05-25T16:34:40.904Z,8.27
2018-05-25T16:37:09.417Z,11.00
2018-05-25T16:39:37.153Z,10.40
2018-05-25T16:42:05.801Z,10.17
2018-05-25T16:44:34.296Z,10.03
2018-05-25T16:47:02.059Z,12.03
2018-05-25T16:49:29.806Z,8.80
2018-05-25T16:51:57.517Z,6.83
2018-05-25T16:54:25.255Z,6.67
2018-05-25T16:56:53.731Z,5.70
2018-05-25T16:59:22.369Z,5.50
2018-05-25T17:01:50.020Z,8.53
2018-05-25T17:04:17.748Z,6.10
2018-05-25T17:06:45.487Z,6.33
2018-05-25T17:09:14.719Z,9.43
2018-05-25T17:11:43.316Z,5.60
2018-05-25T17:14:11.020Z,4.60
2018-05-25T17:16:38.739Z,5.30
2018-05-25T17:19:06.582Z,7.47
2018-05-25T17:21:35.066Z,5.30
2018-05-25T17:24:05.231Z,5.40
2018-05-25T17:26:36.795Z,5.90
2018-05-25T17:29:07.023Z,6.20
2018-05-25T17:31:36.247Z,9.33
2018-05-25T17:34:08.784Z,7.37
2018-05-25T17:36:36.697Z,6.40
2018-05-25T17:39:07.804Z,9.83
2018-05-25T17:41:35.517Z,7.50
2018-05-25T17:44:03.296Z,5.33
2018-05-25T17:46:31.282Z,7.13
2018-05-25T17:48:59.060Z,6.67
2018-05-25T17:51:30.229Z,10.33
2018-05-25T17:54:03.433Z,7.00
2018-05-25T17:56:31.909Z,6.40
2018-05-25T17:59:05.108Z,6.60
2018-05-25T18:01:33.590Z,13.73
2018-05-25T18:04:02.100Z,6.73
2018-05-25T18:06:29.866Z,7.07
2018-05-25T18:08:59.783Z,6.40
2018-05-25T18:11:28.347Z,14.13
2018-05-25T18:13:57.001Z,6.33
2018-05-25T18:16:27.281Z,7.97
2018-05-25T18:18:55.589Z,8.57
2018-05-25T18:21:23.380Z,6.93
2018-05-25T18:23:53.714Z,6.97
2018-05-25T18:26:21.440Z,13.80
2018-05-25T18:28:49.924Z,7.17
2018-05-25T18:31:18.420Z,10.00
2018-05-25T18:33:46.996Z,10.33
2018-05-25T18:36:15.492Z,8.43
2018-05-25T18:38:44.019Z,6.27
2018-05-25T18:41:11.745Z,10.07
2018-05-25T18:43:39.460Z,7.43
2018-05-25T18:46:07.670Z,20.20
2018-05-25T18:48:35.409Z,6.30
2018-05-25T18:51:03.112Z,6.77
2018-05-25T18:53:31.347Z,6.83
2018-05-25T18:55:59.293Z,9.03
2018-05-25T18:58:27.086Z,6.70
2018-05-25T19:00:54.803Z,6.53
2018-05-25T19:03:22.579Z,6.60
2018-05-25T19:05:50.320Z,8.00
2018-05-25T19:08:21.725Z,9.13
2018-05-25T19:10:50.194Z,7.47
2018-05-25T19:13:17.892Z,11.27
2018-05-25T19:15:45.630Z,10.20
2018-05-25T19:18:14.089Z,6.87
2018-05-25T19:20:41.803Z,8.93
2018-05-25T19:23:09.499Z,8.13
2018-05-25T19:25:37.276Z,6.90
2018-05-25T19:28:04.989Z,11.63
2018-05-25T19:30:32.727Z,7.03
2018-05-25T19:33:01.284Z,6.70
2018-05-25T19:35:29.102Z,13.13
2018-05-25T19:37:56.947Z,8.10
2018-05-25T19:40:24.707Z,8.73
2018-05-25T19:42:53.183Z,7.90
2018-05-25T19:45:21.728Z,7.47
2018-05-25T19:47:50.253Z,8.63
2018-05-25T19:50:18.026Z,8.60
2018-05-25T19:52:45.730Z,7.33
2018-05-25T19:55:13.479Z,6.77
2018-05-25T19:57:41.255Z,9.00
2018-05-25T20:00:09.165Z,9.70
2018-05-25T20:02:38.870Z,7.00
2018-05-25T20:05:09.835Z,7.90
2018-05-25T20:07:40.062Z,8.47
2018-05-25T20:10:13.053Z,10.10
2018-05-25T20:12:42.239Z,10.23
2018-05-25T20:15:11.138Z,9.93
2018-05-25T20:17:38.858Z,11.40
2018-05-25T20:20:07.516Z,13.10
2018-05-25T20:22:35.896Z,10.40
2018-05-25T20:25:03.678Z,9.00
2018-05-25T20:27:32.039Z,9.50
2018-05-25T20:30:00.659Z,8.93
2018-05-25T20:32:30.847Z,8.80
2018-05-25T20:34:58.690Z,7.73
2018-05-25T20:37:26.435Z,8.30
2018-05-25T20:39:54.130Z,9.20
2018-05-25T20:42:22.017Z,11.17
2018-05-25T20:44:55.152Z,9.03
2018-05-25T20:47:23.186Z,10.03
2018-05-25T20:49:51.678Z,10.87
2018-05-25T20:52:20.899Z,14.10
2018-05-25T20:54:49.385Z,11.00
2018-05-25T20:57:17.180Z,9.50
2018-05-25T20:59:45.035Z,11.67
2018-05-25T21:02:13.794Z,12.40
2018-05-25T21:04:41.523Z,9.90
2018-05-25T21:07:10.017Z,14.73
2018-05-25T21:09:38.473Z,10.77
2018-05-25T21:12:06.285Z,10.90
2018-05-25T21:14:34.437Z,11.97
2018-05-25T21:17:02.888Z,11.07
2018-05-25T21:19:33.205Z,10.17
2018-05-25T21:22:02.287Z,13.13
2018-05-25T21:24:30.060Z,15.40
2018-05-25T21:26:57.766Z,12.37
2018-05-25T21:29:25.628Z,13.73
2018-05-25T21:31:53.366Z,15.77
2018-05-25T21:34:29.546Z,15.40
2018-05-25T21:36:59.481Z,14.87
2018-05-25T21:39:27.345Z,15.57
2018-05-25T21:41:56.001Z,13.17
2018-05-25T21:44:24.546Z,17.30
2018-05-25T21:46:52.457Z,19.70
2018-05-25T21:49:21.719Z,19.53
2018-05-25T21:51:50.275Z,16.07
2018-05-25T21:54:18.611Z,20.33
2018-05-25T21:56:47.084Z,16.43
2018-05-25T21:59:15.556Z,20.20
2018-05-25T22:01:44.214Z,15.90
2018-05-25T22:04:12.148Z,16.87
2018-05-25T22:06:39.884Z,23.57
2018-05-25T22:09:08.375Z,19.07
2018-05-25T22:11:36.116Z,17.90
2018-05-25T22:14:06.845Z,16.40
2018-05-25T22:16:34.783Z,18.13
2018-05-25T22:19:03.401Z,16.27
2018-05-25T22:21:31.928Z,23.80
2018-05-25T22:23:59.645Z,24.30
2018-05-25T22:26:28.145Z,17.00
2018-05-25T22:28:55.850Z,21.50
2018-05-25T22:31:23.607Z,18.63
2018-05-25T22:33:51.316Z,17.63
2018-05-25T22:36:19.861Z,20.93
2018-05-25T22:38:47.588Z,19.97
2018-05-25T22:41:15.287Z,16.20
2018-05-25T22:43:54.920Z,19.63
2018-05-25T22:46:34.662Z,18.93
2018-05-25T22:49:14.652Z,18.20
2018-05-25T22:51:54.966Z,17.80
2018-05-25T22:54:36.004Z,18.63
2018-05-25T22:57:03.757Z,13.47
2018-05-25T22:59:32.240Z,13.70
2018-05-25T23:02:00.000Z,17.30
2018-05-25T23:04:28.506Z,17.07
2018-05-25T23:06:56.273Z,15.00
2018-05-25T23:09:23.995Z,13.17
2018-05-25T23:11:52.471Z,10.50
2018-05-25T23:14:20.975Z,10.30
2018-05-25T23:16:48.687Z,11.27
2018-05-25T23:19:16.793Z,7.87
2018-05-25T23:21:45.276Z,8.17
2018-05-25T23:24:13.751Z,10.23
2018-05-25T23:26:42.259Z,13.40
2018-05-25T23:29:09.975Z,14.57
2018-05-25T23:31:38.139Z,11.13
2018-05-25T23:34:05.837Z,7.60
2018-05-25T23:36:34.303Z,9.07
2018-05-25T23:39:02.803Z,11.90
2018-05-25T23:41:31.319Z,6.63
2018-05-25T23:43:59.024Z,12.67
2018-05-25T23:46:27.484Z,9.57
2018-05-25T23:48:55.681Z,8.23
2018-05-25T23:51:24.151Z,4.30
2018-05-25T23:53:52.106Z,7.27
2018-05-25T23:56:19.841Z,5.00
2018-05-25T23:58:47.583Z,8.27
